Time;durP1;ratioP1;P1;durP2;ratioP2;P2;SDS_P1;SDS_P2;PMS_P1;PMS_P2;Temp;Humidity;BMP_temperature;BMP_pressure;BME280_temperature;BME280_humidity;BME280_pressure;Samples;Min_cycle;Max_cycle;Signal;HPM_P1;HPM_P2
2021/11/06 00:00:00;;;;;;;14.97;10.30;;;9.20;88.00;;;;;;4893242;29;20472;-40
2021/11/06 00:02:26;;;;;;;13.53;9.50;;;9.20;88.00;;;;;;4875926;29;20462;-40
2021/11/06 00:04:53;;;;;;;15.20;10.07;;;9.10;88.00;;;;;;4878611;29;20469;-40
2021/11/06 00:07:20;;;;;;;12.80;10.00;;;9.10;88.10;;;;;;4894830;29;21004;-40
2021/11/06 00:09:46;;;;;;;11.20;9.27;;;9.20;88.00;;;;;;4893526;29;21001;-40
2021/11/06 00:12:14;;;;;;;12.90;9.27;;;9.10;88.10;;;;;;4894918;29;21009;-40
2021/11/06 00:14:41;;;;;;;13.13;9.83;;;9.10;88.10;;;;;;4889177;29;20585;-40
2021/11/06 00:17:08;;;;;;;13.50;9.67;;;9.10;88.10;;;;;;4890481;29;20465;-40
2021/11/06 00:19:34;;;;;;;12.30;10.30;;;9.10;88.10;;;;;;4875555;29;20474;-40
2021/11/06 00:22:01;;;;;;;13.67;9.10;;;9.10;88.10;;;;;;4891867;29;21000;-40
2021/11/06 00:24:28;;;;;;;11.93;9.67;;;9.10;88.10;;;;;;4893502;29;20484;-40
2021/11/06 00:26:54;;;;;;;12.80;9.57;;;9.10;88.10;;;;;;4876396;29;20629;-40
2021/11/06 00:29:21;;;;;;;13.87;9.53;;;9.10;88.20;;;;;;4893269;29;20481;-40
2021/11/06 00:31:49;;;;;;;11.80;9.07;;;9.20;88.20;;;;;;4890742;29;20742;-40
2021/11/06 00:34:16;;;;;;;16.27;11.20;;;9.10;88.20;;;;;;4888940;29;20476;-40
2021/11/06 00:36:42;;;;;;;12.33;10.53;;;9.20;88.20;;;;;;4892662;29;20469;-40
2021/11/06 00:39:09;;;;;;;12.53;9.87;;;9.20;88.20;;;;;;4878189;29;20457;-40
2021/11/06 00:41:36;;;;;;;14.53;9.20;;;9.20;88.10;;;;;;4875514;29;20522;-40
2021/11/06 00:44:03;;;;;;;10.00;9.00;;;9.20;88.20;;;;;;4894119;29;20466;-40
2021/11/06 00:46:30;;;;;;;15.27;10.80;;;9.20;88.00;;;;;;4893973;29;20473;-40
2021/11/06 00:48:57;;;;;;;12.17;9.10;;;9.20;87.90;;;;;;4894243;29;20453;-40
2021/11/06 00:51:25;;;;;;;13.87;10.17;;;9.20;88.00;;;;;;4891628;29;20992;-40
2021/11/06 00:53:52;;;;;;;10.00;7.97;;;9.20;88.00;;;;;;4894060;29;20945;-40
2021/11/06 00:56:19;;;;;;;12.57;9.30;;;9.20;88.00;;;;;;4892702;29;20490;-40
2021/11/06 00:58:45;;;;;;;13.83;9.90;;;9.20;88.00;;;;;;4892305;29;20472;-41
2021/11/06 01:01:12;;;;;;;11.00;9.07;;;9.10;88.00;;;;;;4877891;29;20477;-41
2021/11/06 01:03:39;;;;;;;11.07;9.53;;;9.10;88.10;;;;;;4878387;29;20463;-41
2021/11/06 01:06:06;;;;;;;13.27;10.10;;;9.10;88.10;;;;;;4891041;29;20466;-41
2021/11/06 01:08:33;;;;;;;12.33;8.00;;;9.10;88.10;;;;;;4876481;29;20470;-41
2021/11/06 01:11:00;;;;;;;14.40;10.10;;;9.10;88.10;;;;;;4893338;29;20496;-41
2021/11/06 01:13:27;;;;;;;13.00;10.03;;;9.10;88.10;;;;;;4893587;29;20456;-41
2021/11/06 01:15:54;;;;;;;16.80;10.73;;;9.10;88.10;;;;;;4889156;29;20469;-41
2021/11/06 01:18:21;;;;;;;13.33;9.50;;;9.10;88.10;;;;;;4891695;29;20473;-41
2021/11/06 01:20:48;;;;;;;15.60;11.10;;;9.10;88.10;;;;;;4887806;29;20480;-41
2021/11/06 01:23:15;;;;;;;11.00;9.30;;;9.10;88.10;;;;;;4893159;29;20458;-41
2021/11/06 01:25:42;;;;;;;10.40;8.40;;;9.10;88.10;;;;;;4892295;29;20465;-41
2021/11/06 01:28:09;;;;;;;12.17;8.80;;;9.10;88.00;;;;;;4890747;29;20870;-41
2021/11/06 01:30:36;;;;;;;10.60;8.30;;;9.10;88.00;;;;;;4893091;29;20509;-41
2021/11/06 01:33:03;;;;;;;10.47;7.63;;;9.10;88.00;;;;;;4876781;29;20462;-41
2021/11/06 01:35:30;;;;;;;10.27;7.77;;;9.10;87.90;;;;;;4893077;29;20462;-41
2021/11/06 01:37:59;;;;;;;12.90;8.23;;;9.10;87.80;;;;;;4892763;29;20466;-41
2021/11/06 01:40:27;;;;;;;13.90;8.80;;;9.20;87.70;;;;;;4890620;29;20458;-41
2021/11/06 01:42:55;;;;;;;11.70;9.10;;;9.20;87.50;;;;;;4876103;29;20453;-41
2021/11/06 01:45:23;;;;;;;16.77;10.23;;;9.10;87.50;;;;;;4881615;29;20456;-41
2021/11/06 01:47:50;;;;;;;14.30;9.27;;;9.10;87.60;;;;;;4875861;29;20465;-41
2021/11/06 01:50:19;;;;;;;13.90;8.57;;;9.10;87.60;;;;;;4876044;29;20468;-41
2021/11/06 01:52:46;;;;;;;11.70;8.73;;;9.10;87.60;;;;;;4876515;29;20462;-41
2021/11/06 01:55:13;;;;;;;15.93;10.43;;;9.10;87.60;;;;;;4886370;29;20482;-41
2021/11/06 01:57:40;;;;;;;14.67;9.60;;;9.00;87.80;;;;;;4893353;29;20823;-41
2021/11/06 02:00:11;;;;;;;13.67;9.90;;;9.00;87.80;;;;;;4891846;29;20461;-41
2021/11/06 02:02:41;;;;;;;13.17;9.57;;;9.00;87.80;;;;;;4876864;29;20462;-41
2021/11/06 02:05:09;;;;;;;15.20;9.87;;;9.00;87.80;;;;;;4892030;29;20844;-41
2021/11/06 02:07:35;;;;;;;14.13;9.80;;;9.00;87.80;;;;;;4876755;29;20817;-41
2021/11/06 02:10:04;;;;;;;11.10;9.93;;;9.00;87.80;;;;;;4876145;29;20466;-41
2021/11/06 02:12:31;;;;;;;13.17;9.27;;;9.00;87.70;;;;;;4889759;29;20493;-41
2021/11/06 02:14:58;;;;;;;17.93;9.67;;;9.00;87.60;;;;;;4887774;29;21014;-41
2021/11/06 02:17:25;;;;;;;15.10;11.13;;;9.00;87.50;;;;;;4889825;29;20462;-41
2021/11/06 02:19:54;;;;;;;10.40;8.53;;;9.00;87.60;;;;;;4891257;29;20963;-41
2021/11/06 02:22:21;;;;;;;13.50;8.80;;;8.90;87.60;;;;;;4890452;29;20870;-41
2021/11/06 02:24:48;;;;;;;11.20;8.33;;;8.90;87.50;;;;;;4891233;29;20469;-41
2021/11/06 02:27:15;;;;;;;14.30;9.37;;;8.90;87.70;;;;;;4890812;29;20878;-40
2021/11/06 02:29:41;;;;;;;12.80;8.97;;;8.90;87.70;;;;;;4877516;29;20725;-40
2021/11/06 02:32:08;;;;;;;12.47;10.17;;;8.80;87.70;;;;;;4891185;29;20916;-40
2021/11/06 02:34:35;;;;;;;12.70;9.03;;;8.80;87.60;;;;;;4891492;29;20466;-40
2021/11/06 02:37:02;;;;;;;10.93;8.97;;;8.80;87.70;;;;;;4875014;29;20480;-40
2021/11/06 02:39:29;;;;;;;15.10;9.97;;;8.80;87.80;;;;;;4892330;29;20472;-40
2021/11/06 02:42:06;;;;;;;15.27;9.00;;;8.80;87.80;;;;;;4890094;29;20466;-40
2021/11/06 02:44:34;;;;;;;13.83;9.67;;;8.80;88.00;;;;;;4890257;29;21035;-40
2021/11/06 02:47:01;;;;;;;11.17;9.37;;;8.80;87.80;;;;;;4875334;29;20469;-41
2021/11/06 02:49:28;;;;;;;11.10;9.10;;;8.70;87.90;;;;;;4889788;29;20743;-41
2021/11/06 02:51:55;;;;;;;11.20;8.73;;;8.70;88.00;;;;;;4891621;29;21088;-41
2021/11/06 02:54:22;;;;;;;12.47;9.27;;;8.70;87.90;;;;;;4891852;29;20461;-41
2021/11/06 02:56:50;;;;;;;11.10;7.87;;;8.70;88.00;;;;;;4869984;29;20891;-41
2021/11/06 02:59:17;;;;;;;12.57;9.20;;;8.70;88.00;;;;;;4883998;29;20469;-41
2021/11/06 03:01:44;;;;;;;10.87;8.50;;;8.70;87.80;;;;;;4888481;29;20479;-40
2021/11/06 03:04:12;;;;;;;14.53;9.07;;;8.70;87.80;;;;;;4887884;29;20469;-40
2021/11/06 03:06:39;;;;;;;9.33;8.07;;;8.60;87.70;;;;;;4891941;29;20995;-40
2021/11/06 03:09:07;;;;;;;11.60;8.67;;;8.60;87.50;;;;;;4891641;29;20493;-40
2021/11/06 03:11:35;;;;;;;10.53;8.00;;;8.60;87.50;;;;;;4892450;29;20523;-40
2021/11/06 03:14:05;;;;;;;11.00;7.80;;;8.60;87.40;;;;;;4874556;29;20825;-40
2021/11/06 03:16:32;;;;;;;12.17;8.37;;;8.60;87.10;;;;;;4889299;29;21062;-40
2021/11/06 03:18:58;;;;;;;10.67;8.27;;;8.50;87.10;;;;;;4891231;29;20833;-40
2021/11/06 03:21:27;;;;;;;9.13;7.40;;;8.50;87.20;;;;;;4874897;29;20914;-40
2021/11/06 03:23:54;;;;;;;10.60;7.17;;;8.40;87.40;;;;;;4876019;29;20461;-40
2021/11/06 03:26:21;;;;;;;12.23;7.50;;;8.50;87.00;;;;;;4898028;29;20548;-42
2021/11/06 03:28:48;;;;;;;9.73;7.40;;;8.40;86.80;;;;;;4899079;29;20468;-42
2021/11/06 03:31:14;;;;;;;8.70;6.77;;;8.40;86.90;;;;;;4897718;29;20923;-42
2021/11/06 03:33:41;;;;;;;12.67;7.83;;;8.30;87.10;;;;;;4898479;29;20485;-42
2021/11/06 03:36:08;;;;;;;11.57;8.20;;;8.30;87.10;;;;;;4898989;29;20473;-42
2021/11/06 03:38:35;;;;;;;10.77;7.27;;;8.20;87.10;;;;;;4882663;29;20468;-42
2021/11/06 03:41:01;;;;;;;10.47;7.23;;;8.20;87.20;;;;;;4898991;29;20465;-42
2021/11/06 03:43:28;;;;;;;9.60;7.27;;;8.20;87.10;;;;;;4897552;29;20453;-43
2021/11/06 03:45:55;;;;;;;9.43;6.70;;;8.10;87.10;;;;;;4898105;29;20977;-43
2021/11/06 03:48:22;;;;;;;11.23;7.13;;;8.10;86.90;;;;;;4887031;29;20978;-43
2021/11/06 03:50:48;;;;;;;7.53;6.33;;;8.10;86.90;;;;;;4900213;29;20469;-43
2021/11/06 03:53:15;;;;;;;8.73;6.67;;;8.10;86.70;;;;;;4900808;29;20459;-43
2021/11/06 03:55:42;;;;;;;10.73;6.93;;;8.00;86.80;;;;;;4901213;29;20470;-43
2021/11/06 03:58:09;;;;;;;8.60;5.80;;;8.00;86.80;;;;;;4901286;29;20472;-43
2021/11/06 04:00:35;;;;;;;7.27;6.57;;;8.00;86.90;;;;;;4901037;29;20458;-42
2021/11/06 04:03:02;;;;;;;9.53;6.87;;;8.00;86.70;;;;;;4885196;29;20635;-42
2021/11/06 04:05:30;;;;;;;9.00;7.30;;;7.90;86.70;;;;;;4883903;29;21045;-42
2021/11/06 04:07:56;;;;;;;8.33;6.60;;;7.90;86.80;;;;;;4901675;29;20952;-42
2021/11/06 04:10:23;;;;;;;8.23;6.70;;;7.80;86.80;;;;;;4898799;29;20497;-42
2021/11/06 04:12:52;;;;;;;8.43;7.00;;;7.80;86.60;;;;;;4885456;29;20501;-43
2021/11/06 04:15:19;;;;;;;8.67;6.97;;;7.80;86.70;;;;;;4901382;29;20525;-42
2021/11/06 04:17:46;;;;;;;6.57;5.80;;;7.80;86.80;;;;;;4885377;29;20460;-42
2021/11/06 04:20:13;;;;;;;9.97;6.87;;;7.80;87.00;;;;;;4884449;29;20457;-42
2021/11/06 04:22:40;;;;;;;9.47;6.70;;;7.80;86.70;;;;;;4901017;29;20464;-42
2021/11/06 04:25:07;;;;;;;8.80;6.83;;;7.70;86.60;;;;;;4902656;29;20544;-42
2021/11/06 04:27:34;;;;;;;8.40;6.83;;;7.70;86.80;;;;;;4898390;29;20524;-42
2021/11/06 04:30:04;;;;;;;9.47;6.80;;;7.70;86.70;;;;;;4896668;29;20477;-42
2021/11/06 04:32:30;;;;;;;8.37;7.40;;;7.60;86.60;;;;;;4900086;29;20498;-42
2021/11/06 04:34:57;;;;;;;7.30;6.60;;;7.60;86.70;;;;;;4899209;29;20985;-42
2021/11/06 04:37:24;;;;;;;7.63;6.57;;;7.60;86.70;;;;;;4898207;29;20473;-42
2021/11/06 04:39:51;;;;;;;7.60;6.20;;;7.50;86.50;;;;;;4898141;29;20461;-42
2021/11/06 04:42:17;;;;;;;7.23;5.30;;;7.50;86.50;;;;;;4885629;29;21217;-42
2021/11/06 04:44:44;;;;;;;9.33;6.50;;;7.50;86.60;;;;;;4887113;29;20462;-42
2021/11/06 04:47:11;;;;;;;7.90;6.23;;;7.50;86.40;;;;;;4886320;29;20464;-42
2021/11/06 04:49:38;;;;;;;10.37;7.13;;;7.50;86.00;;;;;;4887221;29;20458;-42
2021/11/06 04:52:05;;;;;;;15.03;8.27;;;7.50;86.10;;;;;;4897312;29;20489;-42
2021/11/06 04:54:32;;;;;;;7.67;6.80;;;7.40;86.30;;;;;;4899796;29;20541;-42
2021/11/06 04:56:59;;;;;;;7.70;6.20;;;7.40;86.30;;;;;;4898389;29;20483;-42
2021/11/06 04:59:26;;;;;;;6.73;5.40;;;7.30;86.50;;;;;;4884105;29;20469;-42
2021/11/06 05:01:55;;;;;;;8.90;7.07;;;7.30;86.50;;;;;;4884116;29;20529;-42
2021/11/06 05:04:22;;;;;;;9.37;7.00;;;7.20;86.50;;;;;;4901433;29;20772;-42
2021/11/06 05:06:49;;;;;;;12.73;6.73;;;7.20;86.40;;;;;;4900403;29;20492;-42
2021/11/06 05:09:16;;;;;;;7.53;5.43;;;7.20;86.30;;;;;;4899235;29;20461;-42
2021/11/06 05:11:43;;;;;;;7.70;6.67;;;7.10;85.90;;;;;;4882095;29;20503;-43
2021/11/06 05:14:10;;;;;;;8.33;6.10;;;7.10;85.90;;;;;;4899207;29;20551;-43
2021/11/06 05:16:37;;;;;;;9.13;6.60;;;7.00;86.00;;;;;;4884495;29;20476;-43
2021/11/06 05:19:03;;;;;;;9.83;6.30;;;7.00;85.80;;;;;;4874004;29;20454;-42
2021/11/06 05:21:36;;;;;;;8.57;5.70;;;7.00;85.90;;;;;;4885617;29;20462;-42
2021/11/06 05:24:05;;;;;;;13.70;6.10;;;7.00;85.90;;;;;;4885244;29;20465;-42
2021/11/06 05:26:31;;;;;;;9.47;6.70;;;7.00;85.70;;;;;;4900162;29;21239;-42
2021/11/06 05:28:58;;;;;;;8.90;5.70;;;6.90;85.90;;;;;;4901948;29;20458;-42
2021/11/06 05:31:25;;;;;;;6.97;5.57;;;6.90;85.60;;;;;;4883604;29;20462;-42
2021/11/06 05:33:52;;;;;;;8.97;6.60;;;6.90;85.60;;;;;;4886438;29;21192;-42
2021/11/06 05:36:18;;;;;;;9.47;5.80;;;6.80;85.70;;;;;;4884769;29;20464;-43
2021/11/06 05:38:45;;;;;;;7.27;5.73;;;6.80;85.70;;;;;;4902121;29;20522;-42
2021/11/06 05:41:12;;;;;;;9.13;6.50;;;6.70;85.70;;;;;;4902286;29;20827;-42
2021/11/06 05:43:39;;;;;;;8.70;5.30;;;6.70;85.80;;;;;;4901723;29;20464;-42
2021/11/06 05:46:06;;;;;;;8.83;6.13;;;6.70;85.90;;;;;;4900559;29;20453;-42
2021/11/06 05:48:33;;;;;;;11.30;6.70;;;6.60;86.00;;;;;;4885462;29;21091;-42
2021/11/06 05:50:59;;;;;;;6.83;5.43;;;6.60;85.90;;;;;;4900827;29;20462;-42
2021/11/06 05:53:26;;;;;;;10.20;5.67;;;6.60;85.90;;;;;;4885391;29;20573;-42
2021/11/06 05:55:55;;;;;;;9.03;6.03;;;6.60;85.90;;;;;;4900867;29;20478;-42
2021/11/06 05:58:22;;;;;;;8.53;6.27;;;6.60;85.90;;;;;;4900920;29;20468;-42
2021/11/06 06:00:49;;;;;;;8.77;6.00;;;6.50;85.90;;;;;;4899290;29;20467;-42
2021/11/06 06:03:17;;;;;;;8.53;6.23;;;6.50;86.00;;;;;;4896834;29;20470;-42
2021/11/06 06:05:44;;;;;;;6.80;5.20;;;6.50;85.90;;;;;;4900678;29;20464;-42
2021/11/06 06:08:11;;;;;;;6.17;5.50;;;6.50;86.00;;;;;;4896864;29;20466;-42
2021/11/06 06:10:38;;;;;;;9.07;6.53;;;6.50;86.00;;;;;;4897519;29;20806;-42
2021/11/06 06:13:05;;;;;;;7.27;6.23;;;6.50;86.00;;;;;;4898004;29;21020;-42
2021/11/06 06:15:32;;;;;;;7.70;6.80;;;6.40;86.00;;;;;;4899020;29;20473;-43
2021/11/06 06:17:59;;;;;;;6.73;6.00;;;6.40;86.00;;;;;;4899149;29;20458;-43
2021/11/06 06:20:25;;;;;;;8.03;6.83;;;6.40;86.10;;;;;;4900181;29;20454;-43
2021/11/06 06:22:52;;;;;;;7.47;6.70;;;6.40;86.10;;;;;;4898345;29;20484;-43
2021/11/06 06:25:19;;;;;;;8.60;6.80;;;6.40;86.10;;;;;;4882477;29;20466;-42
2021/11/06 06:27:46;;;;;;;8.07;6.70;;;6.40;85.90;;;;;;4898637;29;20999;-42
2021/11/06 06:30:14;;;;;;;9.23;5.83;;;6.40;85.80;;;;;;4898146;29;20462;-42
2021/11/06 06:32:41;;;;;;;10.10;7.57;;;6.30;85.80;;;;;;4879073;29;20497;-42
2021/11/06 06:35:09;;;;;;;10.03;8.23;;;6.30;85.80;;;;;;4899316;29;20454;-43
2021/11/06 06:37:37;;;;;;;11.17;7.80;;;6.30;85.90;;;;;;4899989;29;20458;-43
2021/11/06 06:40:05;;;;;;;8.10;6.20;;;6.30;85.70;;;;;;4900771;29;20530;-43
2021/11/06 06:42:32;;;;;;;10.70;6.43;;;6.30;85.80;;;;;;4899543;29;21071;-43
2021/11/06 06:44:59;;;;;;;8.20;5.10;;;6.30;85.70;;;;;;4899734;29;20489;-43
2021/11/06 06:47:26;;;;;;;7.47;5.80;;;6.20;85.70;;;;;;4897509;29;20472;-43
2021/11/06 06:49:56;;;;;;;8.37;6.23;;;6.20;85.70;;;;;;4897274;29;20532;-43
2021/11/06 06:52:24;;;;;;;10.10;6.27;;;6.10;85.80;;;;;;4896414;29;20489;-43
2021/11/06 06:54:50;;;;;;;8.57;6.70;;;6.20;85.90;;;;;;4897243;29;20465;-42
2021/11/06 06:57:17;;;;;;;7.40;6.10;;;6.10;85.90;;;;;;4898965;29;20458;-43
2021/11/06 06:59:44;;;;;;;8.27;6.33;;;6.20;86.00;;;;;;4896610;29;20465;-43
2021/11/06 07:02:11;;;;;;;6.40;5.33;;;6.10;86.00;;;;;;4898508;29;20482;-43
2021/11/06 07:04:38;;;;;;;8.67;5.87;;;6.10;86.10;;;;;;4860848;29;22539;-43
2021/11/06 07:07:08;;;;;;;8.87;6.60;;;6.10;86.00;;;;;;4896958;29;20981;-43
2021/11/06 07:09:36;;;;;;;8.50;6.00;;;6.10;86.20;;;;;;4895549;29;20552;-43
2021/11/06 07:12:03;;;;;;;8.63;6.83;;;6.10;86.20;;;;;;4892496;29;20568;-43
2021/11/06 07:14:29;;;;;;;10.00;7.77;;;6.10;86.40;;;;;;4879201;29;20583;-43
2021/11/06 07:16:56;;;;;;;58.00;33.83;;;6.10;86.50;;;;;;4879397;29;20466;-43
2021/11/06 07:19:23;;;;;;;32.67;22.27;;;6.10;86.50;;;;;;4893446;29;20466;-43
2021/11/06 07:21:50;;;;;;;18.83;12.50;;;6.20;86.40;;;;;;4898096;29;20476;-43
2021/11/06 07:24:16;;;;;;;21.63;11.63;;;6.10;86.40;;;;;;4884030;29;20836;-43
2021/11/06 07:26:43;;;;;;;11.63;8.97;;;6.10;86.50;;;;;;4877001;29;20941;-43
2021/11/06 07:29:10;;;;;;;10.30;8.70;;;6.10;86.40;;;;;;4878209;29;20471;-43
2021/11/06 07:31:37;;;;;;;13.20;8.77;;;6.10;86.40;;;;;;4901624;29;20465;-42
2021/11/06 07:34:05;;;;;;;15.87;8.80;;;6.10;86.40;;;;;;4900499;29;20593;-43
2021/11/06 07:36:31;;;;;;;11.47;7.83;;;6.20;86.40;;;;;;4880987;29;20474;-43
2021/11/06 07:38:58;;;;;;;11.77;7.67;;;6.20;86.30;;;;;;4901948;29;20540;-42
2021/11/06 07:41:25;;;;;;;10.47;8.37;;;6.20;86.40;;;;;;4884334;29;20473;-43
2021/11/06 07:43:54;;;;;;;9.73;7.33;;;6.20;86.40;;;;;;4880415;29;20461;-43
2021/11/06 07:46:21;;;;;;;9.13;7.47;;;6.20;86.60;;;;;;4894207;29;20832;-43
2021/11/06 07:48:49;;;;;;;11.30;8.03;;;6.20;86.70;;;;;;4895579;29;21000;-43
2021/11/06 07:51:17;;;;;;;9.80;7.33;;;6.20;86.70;;;;;;4897567;29;20469;-42
2021/11/06 07:53:44;;;;;;;12.03;7.37;;;6.30;86.70;;;;;;4897615;29;20512;-42
2021/11/06 07:56:11;;;;;;;12.63;9.13;;;6.30;86.70;;;;;;4901065;29;20489;-42
2021/11/06 07:58:38;;;;;;;16.80;9.83;;;6.30;86.90;;;;;;4883029;29;20826;-42
2021/11/06 08:01:05;;;;;;;14.00;8.90;;;6.40;86.80;;;;;;4896766;29;20957;-42
2021/11/06 08:03:31;;;;;;;10.90;7.70;;;6.40;86.90;;;;;;4899676;29;21010;-42
2021/11/06 08:05:58;;;;;;;8.60;6.90;;;6.50;87.10;;;;;;4879971;29;20925;-42
2021/11/06 08:08:25;;;;;;;9.90;7.30;;;6.50;87.10;;;;;;4898276;29;20484;-43
2021/11/06 08:10:53;;;;;;;11.30;7.60;;;6.50;87.30;;;;;;4891828;29;20493;-43
2021/11/06 08:13:20;;;;;;;10.07;7.70;;;6.60;87.40;;;;;;4898402;29;20560;-43
2021/11/06 08:15:47;;;;;;;11.90;8.20;;;6.70;87.70;;;;;;4897219;29;20543;-43
2021/11/06 08:18:14;;;;;;;8.97;7.50;;;6.70;87.70;;;;;;4894479;29;20467;-42
2021/11/06 08:20:41;;;;;;;10.93;8.63;;;6.70;87.70;;;;;;4898412;29;20469;-43
2021/11/06 08:23:08;;;;;;;9.80;8.33;;;6.70;88.10;;;;;;4883425;29;20503;-42
2021/11/06 08:25:35;;;;;;;11.17;7.83;;;6.70;88.40;;;;;;4901144;29;20464;-42
2021/11/06 08:28:03;;;;;;;13.33;8.57;;;6.90;88.30;;;;;;4895554;29;20470;-42
2021/11/06 08:30:29;;;;;;;10.63;8.37;;;6.90;88.30;;;;;;4897556;29;20533;-42
2021/11/06 08:32:58;;;;;;;10.00;8.57;;;7.00;88.00;;;;;;4901160;29;20496;-42
2021/11/06 08:35:29;;;;;;;15.20;9.93;;;6.90;88.00;;;;;;4897936;29;21125;-42
2021/11/06 08:37:58;;;;;;;14.70;9.47;;;7.00;88.30;;;;;;4897821;29;20466;-43
2021/11/06 08:40:26;;;;;;;12.67;9.17;;;7.00;88.40;;;;;;4883088;29;20462;-43
2021/11/06 08:42:53;;;;;;;12.80;8.53;;;7.10;88.50;;;;;;4900799;29;20936;-43
2021/11/06 08:45:20;;;;;;;11.60;8.83;;;7.10;88.70;;;;;;4896625;29;20505;-43
2021/11/06 08:47:48;;;;;;;14.20;9.77;;;7.10;88.70;;;;;;4897736;29;20484;-43
2021/11/06 08:50:21;;;;;;;13.20;9.77;;;7.20;88.80;;;;;;4897006;29;20465;-42
2021/11/06 08:52:50;;;;;;;11.13;8.57;;;7.30;88.80;;;;;;4897400;29;20496;-42
2021/11/06 08:55:17;;;;;;;9.73;7.07;;;7.30;88.90;;;;;;4880968;29;20505;-42
2021/11/06 08:57:44;;;;;;;11.73;8.07;;;7.40;89.00;;;;;;4893656;29;20474;-42
2021/11/06 09:00:14;;;;;;;12.57;8.87;;;7.50;89.10;;;;;;4884675;29;20462;-42
2021/11/06 09:02:42;;;;;;;12.53;9.40;;;7.60;88.90;;;;;;4882155;29;20977;-42
2021/11/06 09:05:09;;;;;;;11.33;8.50;;;7.60;89.10;;;;;;4868837;29;20978;-43
2021/11/06 09:07:37;;;;;;;12.63;8.97;;;7.70;89.00;;;;;;4888136;29;20477;-43
2021/11/06 09:10:08;;;;;;;12.40;9.67;;;7.80;89.30;;;;;;4891699;29;20521;-43
2021/11/06 09:12:35;;;;;;;11.30;8.03;;;7.90;89.30;;;;;;4888884;29;20488;-43
2021/11/06 09:15:03;;;;;;;13.10;8.90;;;8.00;89.30;;;;;;4889115;29;20818;-43
2021/11/06 09:17:29;;;;;;;10.10;7.87;;;8.10;89.20;;;;;;4890262;29;20508;-43
2021/11/06 09:19:56;;;;;;;15.30;9.60;;;8.30;88.70;;;;;;4890232;29;20465;-43
2021/11/06 09:22:24;;;;;;;10.57;8.70;;;8.40;88.60;;;;;;4889477;29;20500;-43
2021/11/06 09:24:51;;;;;;;10.93;8.03;;;8.50;87.90;;;;;;4887568;29;20476;-43
2021/11/06 09:27:19;;;;;;;10.30;7.60;;;8.60;87.70;;;;;;4872131;29;20478;-43
2021/11/06 09:29:47;;;;;;;10.63;7.90;;;8.60;87.40;;;;;;4888044;29;20454;-43
2021/11/06 09:32:20;;;;;;;13.83;8.60;;;8.80;87.10;;;;;;4889052;29;20462;-40
2021/11/06 09:34:47;;;;;;;13.37;8.23;;;8.90;86.90;;;;;;4860668;29;20453;-41
2021/11/06 09:37:14;;;;;;;10.13;7.50;;;9.00;87.10;;;;;;4892140;29;20473;-41
2021/11/06 09:39:41;;;;;;;9.67;8.20;;;9.10;86.60;;;;;;4897923;29;20468;-43
2021/11/06 09:42:09;;;;;;;11.60;8.10;;;9.10;86.40;;;;;;4896971;29;20548;-43
2021/11/06 09:44:36;;;;;;;12.10;7.27;;;9.20;86.10;;;;;;4896424;29;20471;-43
2021/11/06 09:47:09;;;;;;;15.97;8.30;;;9.20;86.50;;;;;;4896856;29;20475;-43
2021/11/06 09:49:37;;;;;;;10.00;7.50;;;9.30;86.40;;;;;;4894524;29;20473;-43
2021/11/06 09:52:04;;;;;;;13.20;8.60;;;9.50;86.10;;;;;;4888392;29;20473;-44
2021/11/06 09:54:32;;;;;;;9.93;7.40;;;9.70;85.80;;;;;;4876562;29;20489;-43
2021/11/06 09:56:59;;;;;;;10.03;7.10;;;9.80;85.00;;;;;;4896886;29;20568;-43
2021/11/06 09:59:27;;;;;;;11.17;8.33;;;10.00;84.80;;;;;;4896117;29;20466;-43
2021/11/06 10:01:55;;;;;;;9.90;7.27;;;10.20;84.50;;;;;;4897132;29;20517;-43
2021/11/06 10:04:22;;;;;;;10.53;8.20;;;10.40;83.60;;;;;;4893387;29;20478;-44
2021/11/06 10:06:49;;;;;;;12.87;9.80;;;10.50;83.60;;;;;;4893023;29;20473;-44
2021/11/06 10:09:17;;;;;;;9.73;8.03;;;10.60;82.50;;;;;;4879828;29;20620;-43
2021/11/06 10:11:49;;;;;;;8.80;7.20;;;10.70;82.30;;;;;;4899266;29;20462;-43
2021/11/06 10:14:19;;;;;;;10.20;8.07;;;10.80;82.20;;;;;;4897817;29;20956;-43
2021/11/06 10:16:57;;;;;;;12.20;8.10;;;10.90;81.70;;;;;;4880630;29;20457;-43
2021/11/06 10:19:46;;;;;;;8.33;6.60;;;11.00;80.90;;;;;;4898397;29;20812;-43
2021/11/06 10:22:18;;;;;;;8.83;7.10;;;11.10;80.60;;;;;;4899107;29;20451;-43
2021/11/06 10:24:53;;;;;;;9.70;7.60;;;11.10;79.50;;;;;;4896853;29;20450;-44
2021/11/06 10:27:31;;;;;;;12.13;7.50;;;11.00;79.20;;;;;;4894904;29;21032;-43
2021/11/06 10:30:01;;;;;;;10.70;9.60;;;10.90;80.00;;;;;;4897676;29;20468;-43
2021/11/06 10:32:28;;;;;;;9.80;7.83;;;10.90;80.50;;;;;;4893845;29;20477;-43
2021/11/06 10:35:09;;;;;;;14.80;8.87;;;10.80;80.30;;;;;;4882767;29;20489;-43
2021/11/06 10:37:35;;;;;;;12.17;8.10;;;10.90;80.60;;;;;;4880452;29;20462;-44
2021/11/06 10:40:03;;;;;;;12.10;9.27;;;10.90;80.70;;;;;;4898458;29;20521;-43
2021/11/06 10:42:29;;;;;;;13.23;9.90;;;11.10;80.60;;;;;;4898541;29;20477;-43
2021/11/06 10:45:14;;;;;;;12.70;9.40;;;11.10;80.30;;;;;;4895536;29;20464;-43
2021/11/06 10:47:53;;;;;;;12.87;9.40;;;11.20;80.30;;;;;;4898636;29;20465;-43
2021/11/06 10:50:40;;;;;;;17.43;9.13;;;11.30;80.50;;;;;;4896000;29;20508;-43
2021/11/06 10:53:08;;;;;;;13.30;8.77;;;11.40;80.20;;;;;;4881613;29;20493;-43
2021/11/06 10:55:40;;;;;;;11.00;8.60;;;11.50;79.40;;;;;;4878381;29;20482;-44
2021/11/06 10:58:24;;;;;;;12.80;8.57;;;11.50;78.50;;;;;;4898551;29;20467;-43
2021/11/06 11:00:58;;;;;;;12.10;9.93;;;11.40;78.80;;;;;;4889066;29;20475;-43
2021/11/06 11:03:31;;;;;;;12.07;9.80;;;11.40;79.10;;;;;;4888040;29;20472;-43
2021/11/06 11:06:00;;;;;;;13.10;10.00;;;11.40;79.60;;;;;;4897108;29;20548;-43
2021/11/06 11:08:28;;;;;;;12.13;9.53;;;11.30;79.60;;;;;;4896615;29;20489;-43
2021/11/06 11:11:06;;;;;;;11.90;9.60;;;11.20;80.10;;;;;;4895448;29;20501;-44
2021/11/06 11:13:34;;;;;;;13.87;10.47;;;11.30;80.40;;;;;;4884254;29;20493;-44
2021/11/06 11:16:20;;;;;;;15.73;11.10;;;11.30;80.40;;;;;;4885656;29;20466;-43
2021/11/06 11:18:49;;;;;;;12.13;9.70;;;11.40;80.10;;;;;;4899946;29;20464;-44
2021/11/06 11:21:21;;;;;;;12.23;10.00;;;11.30;80.10;;;;;;4886293;29;20817;-44
2021/11/06 11:23:58;;;;;;;11.63;10.10;;;11.40;80.50;;;;;;4881031;29;20488;-44
2021/11/06 11:26:34;;;;;;;14.87;11.00;;;11.40;80.50;;;;;;4870024;29;20568;-44
2021/11/06 11:29:03;;;;;;;15.43;11.23;;;11.40;80.40;;;;;;4874737;29;20568;-44
2021/11/06 11:31:30;;;;;;;18.50;11.97;;;11.40;80.30;;;;;;4886753;29;20499;-44
2021/11/06 11:33:58;;;;;;;15.33;11.80;;;11.30;80.70;;;;;;4901068;29;20507;-43
2021/11/06 11:36:30;;;;;;;15.87;11.57;;;11.20;80.60;;;;;;4899599;29;20465;-43
2021/11/06 11:38:59;;;;;;;13.10;10.90;;;11.20;81.00;;;;;;4899659;29;20471;-43
2021/11/06 11:41:46;;;;;;;15.60;12.23;;;11.10;81.10;;;;;;4894812;29;20477;-43
2021/11/06 11:44:51;;;;;;;12.07;10.83;;;11.00;81.50;;;;;;4886697;29;21391;-43
2021/11/06 11:47:39;;;;;;;15.77;11.37;;;11.00;81.50;;;;;;4900076;29;21164;-43
2021/11/06 11:50:12;;;;;;;12.10;10.90;;;11.00;81.70;;;;;;4881429;29;20891;-43
2021/11/06 11:52:42;;;;;;;13.90;11.80;;;10.90;82.40;;;;;;4896061;29;20978;-43
2021/11/06 11:55:29;;;;;;;11.23;10.03;;;10.90;82.40;;;;;;4883197;29;20502;-43
2021/11/06 11:58:24;;;;;;;13.27;10.93;;;10.90;82.30;;;;;;4893686;29;20461;-44
2021/11/06 12:00:54;;;;;;;13.17;11.70;;;10.90;82.30;;;;;;4883098;29;20967;-43
2021/11/06 12:03:39;;;;;;;13.60;11.00;;;11.00;82.20;;;;;;4899648;29;20469;-44
2021/11/06 12:06:35;;;;;;;15.30;11.40;;;11.00;82.20;;;;;;4900197;29;20461;-43
2021/11/06 12:09:11;;;;;;;14.30;11.20;;;10.90;82.40;;;;;;4882610;29;20476;-43
2021/11/06 12:11:54;;;;;;;11.87;9.97;;;10.90;82.70;;;;;;4897457;29;20957;-43
2021/11/06 12:14:29;;;;;;;13.40;11.17;;;10.90;82.90;;;;;;4901025;29;21013;-43
2021/11/06 12:17:04;;;;;;;13.10;10.53;;;11.00;83.10;;;;;;4898097;29;20467;-43
2021/11/06 12:19:36;;;;;;;12.03;10.50;;;10.90;83.90;;;;;;4899053;29;20537;-43
2021/11/06 12:22:16;;;;;;;13.03;10.57;;;10.90;84.00;;;;;;4900976;29;20458;-44
2021/11/06 12:24:47;;;;;;;11.57;9.63;;;10.90;83.60;;;;;;4900728;29;20476;-44
2021/11/06 12:27:16;;;;;;;12.83;10.50;;;10.90;83.00;;;;;;4898446;29;20960;-44
2021/11/06 12:29:51;;;;;;;15.50;11.40;;;10.90;83.10;;;;;;4901309;29;20484;-43
2021/11/06 12:32:28;;;;;;;15.73;11.73;;;10.80;83.50;;;;;;4901055;29;20905;-43
2021/11/06 12:34:59;;;;;;;12.63;10.53;;;10.70;83.50;;;;;;4893668;29;20929;-43
2021/11/06 12:37:35;;;;;;;13.03;11.23;;;10.50;84.10;;;;;;4879964;29;20466;-43
2021/11/06 12:40:14;;;;;;;14.77;11.47;;;10.50;84.60;;;;;;4897405;29;21068;-44
2021/11/06 12:43:05;;;;;;;14.53;11.53;;;10.40;84.70;;;;;;4897302;29;20472;-43
2021/11/06 12:45:32;;;;;;;16.37;13.10;;;10.40;84.80;;;;;;4893306;29;20461;-44
2021/11/06 12:48:21;;;;;;;14.17;11.67;;;10.40;84.70;;;;;;4894059;29;20461;-43
2021/11/06 12:51:00;;;;;;;16.70;12.57;;;10.40;84.60;;;;;;4891758;29;20478;-44
2021/11/06 12:53:31;;;;;;;19.87;12.90;;;10.50;84.50;;;;;;4896098;29;20502;-44